Lunds Valley, North Dakota
Current Conditions -  °F | °C
As of 10:35 PM on Saturday 22 Nov 2014 (Local Time) from K08D Reporting Station
Clear Clear  
Wind Chill: 26°   Ceiling: Unl
Heat Index: 36°   Visibility: 10mi
Dew Point: 32°   Wind: 15mph
Humidity: 87%   Direction: 240°WSW
Pressure: 29.26"   Gusts: NA
Location:  48.3212°N, 102.393°W
Report Text: K08D 230435Z AUTO 24013KT 10SM CLR 02/00 A2926 RMK AO2
Loading
Personal Weather Stations






























Interactive Weather Map New forecast layout! Learn more

10-Day Weather Forecast

Advertisements
Track Severe Weather on mobile